createdAt,value
2023-01-01T00:01:32.356Z,102162.48
2023-01-01T00:04:01.270Z,102159.53
2023-01-01T00:06:29.611Z,102164.06
2023-01-01T00:08:57.902Z,102161.35
2023-01-01T00:11:26.178Z,102157.44
2023-01-01T00:13:54.390Z,102154.64
2023-01-01T00:16:22.727Z,102150.30
2023-01-01T00:18:51.906Z,102148.46
2023-01-01T00:21:20.142Z,102145.27
2023-01-01T00:23:48.386Z,102143.23
2023-01-01T00:26:18.683Z,102147.26
2023-01-01T00:28:46.917Z,102147.64
2023-01-01T00:31:18.780Z,102150.23
2023-01-01T00:33:51.113Z,102151.26
2023-01-01T00:36:21.245Z,102148.86
2023-01-01T00:38:50.536Z,102151.98
2023-01-01T00:41:19.403Z,102145.31
2023-01-01T00:43:48.038Z,102145.64
2023-01-01T00:46:16.304Z,102144.01
2023-01-01T00:48:44.804Z,102141.88
2023-01-01T00:51:13.300Z,102142.14
2023-01-01T00:53:44.133Z,102135.32
2023-01-01T00:56:12.781Z,102127.95
2023-01-01T00:58:41.038Z,102132.91
2023-01-01T01:01:09.422Z,102132.17
2023-01-01T01:03:39.976Z,102130.79
2023-01-01T01:06:12.750Z,102131.79
2023-01-01T01:08:45.314Z,102127.50
2023-01-01T01:11:21.245Z,102124.66
2023-01-01T01:13:54.939Z,102128.30
2023-01-01T01:16:32.683Z,102127.52
2023-01-01T01:19:04.310Z,102124.15
2023-01-01T01:21:34.610Z,102116.36
2023-01-01T01:24:06.270Z,102111.27
2023-01-01T01:26:35.046Z,102110.92
2023-01-01T01:29:03.904Z,102110.41
2023-01-01T01:31:34.089Z,102109.66
2023-01-01T01:34:02.997Z,102108.61
2023-01-01T01:36:31.792Z,102104.23
2023-01-01T01:39:00.402Z,102103.94
2023-01-01T01:41:29.242Z,102103.61
2023-01-01T01:44:02.375Z,102101.61
2023-01-01T01:46:36.921Z,102099.65
2023-01-01T01:49:15.531Z,102100.91
2023-01-01T01:51:45.108Z,102098.52
2023-01-01T01:54:20.988Z,102095.81
2023-01-01T01:57:03.245Z,102096.73
2023-01-01T01:59:35.487Z,102095.66
2023-01-01T02:02:10.502Z,102095.88
2023-01-01T02:04:39.504Z,102096.48
2023-01-01T02:07:08.624Z,102094.66
2023-01-01T02:09:38.312Z,102092.20
2023-01-01T02:12:06.715Z,102094.11
2023-01-01T02:14:35.022Z,102093.70
2023-01-01T02:17:38.963Z,102090.05
2023-01-01T02:20:17.252Z,102090.17
2023-01-01T02:23:04.790Z,102089.31
2023-01-01T02:25:33.196Z,102088.10
2023-01-01T02:28:07.078Z,102086.98
2023-01-01T02:30:36.878Z,102085.77
2023-01-01T02:33:09.771Z,102085.23
2023-01-01T02:35:59.889Z,102085.48
2023-01-01T02:38:43.377Z,102084.89
2023-01-01T02:41:21.957Z,102084.10
2023-01-01T02:43:53.305Z,102082.75
2023-01-01T02:48:53.872Z,102083.13
2023-01-01T02:51:41.495Z,102082.45
2023-01-01T02:54:19.110Z,102076.24
2023-01-01T02:57:21.191Z,102071.96
2023-01-01T03:00:18.526Z,102072.52
2023-01-01T03:03:05.548Z,102070.18
2023-01-01T03:05:46.848Z,102074.52
2023-01-01T03:08:26.703Z,102075.67
2023-01-01T03:11:14.854Z,102073.95
2023-01-01T03:13:47.091Z,102075.89
2023-01-01T03:16:37.189Z,102077.02
2023-01-01T03:19:18.312Z,102072.89
2023-01-01T03:21:58.497Z,102067.77
2023-01-01T03:24:32.735Z,102066.44
2023-01-01T03:27:13.970Z,102066.70
2023-01-01T03:29:44.310Z,102059.21
2023-01-01T03:32:17.005Z,102057.02
2023-01-01T03:34:54.159Z,102050.23
2023-01-01T03:37:29.357Z,102044.77
2023-01-01T03:40:00.097Z,102045.48
2023-01-01T03:42:42.028Z,102046.07
2023-01-01T03:45:27.709Z,102045.23
2023-01-01T03:47:57.000Z,102038.57
2023-01-01T03:50:50.239Z,102040.05
2023-01-01T03:53:24.636Z,102039.55
2023-01-01T03:56:17.756Z,102040.89
2023-01-01T03:58:54.242Z,102037.27
2023-01-01T04:01:41.570Z,102038.77
2023-01-01T04:04:11.581Z,102034.11
2023-01-01T04:06:40.057Z,102031.98
2023-01-01T04:09:16.117Z,102030.68
2023-01-01T04:11:47.009Z,102031.11
2023-01-01T04:14:26.278Z,102032.43
2023-01-01T04:16:56.058Z,102033.83
2023-01-01T04:19:24.417Z,102033.99
2023-01-01T04:21:52.892Z,102034.83
2023-01-01T04:24:21.113Z,102035.03
2023-01-01T04:26:50.529Z,102035.45
2023-01-01T04:29:19.838Z,102028.44
2023-01-01T04:31:48.241Z,102027.77
2023-01-01T04:34:16.667Z,102025.41
2023-01-01T04:36:45.133Z,102026.63
2023-01-01T04:39:13.410Z,102026.31
2023-01-01T04:41:41.756Z,102024.77
2023-01-01T04:44:10.250Z,102026.85
2023-01-01T04:46:38.404Z,102029.61
2023-01-01T04:49:06.817Z,102026.02
2023-01-01T04:51:34.986Z,102028.14
2023-01-01T04:54:03.220Z,102023.13
2023-01-01T04:56:31.745Z,102017.77
2023-01-01T04:59:02.376Z,102018.05
2023-01-01T05:01:31.699Z,102023.28
2023-01-01T05:04:01.681Z,102026.45
2023-01-01T05:06:30.050Z,102024.87
2023-01-01T05:08:58.532Z,102028.11
2023-01-01T05:11:30.816Z,102025.90
2023-01-01T05:14:00.455Z,102028.23
2023-01-01T05:16:39.356Z,102029.35
2023-01-01T05:19:08.848Z,102028.85
2023-01-01T05:21:40.424Z,102029.70
2023-01-01T05:24:10.393Z,102028.55
2023-01-01T05:26:43.246Z,102030.11
2023-01-01T05:29:16.696Z,102025.89
2023-01-01T05:31:50.117Z,102027.06
2023-01-01T05:34:19.711Z,102033.69
2023-01-01T05:36:49.517Z,102035.39
2023-01-01T05:39:18.643Z,102036.25
2023-01-01T05:41:46.937Z,102034.52
2023-01-01T05:44:19.086Z,102035.17
2023-01-01T05:46:54.853Z,102041.23
2023-01-01T05:49:25.783Z,102044.29
2023-01-01T05:51:54.601Z,102042.23
2023-01-01T05:54:23.032Z,102047.45
2023-01-01T05:56:51.331Z,102048.69
2023-01-01T05:59:20.169Z,102051.88
2023-01-01T06:01:51.130Z,102052.20
2023-01-01T06:04:20.374Z,102051.99
2023-01-01T06:06:53.046Z,102057.12
2023-01-01T06:09:21.122Z,102058.61
2023-01-01T06:11:49.527Z,102059.64
2023-01-01T06:14:17.804Z,102058.79
2023-01-01T06:16:46.171Z,102059.08
2023-01-01T06:19:14.749Z,102057.73
2023-01-01T06:21:42.984Z,102064.52
2023-01-01T06:24:12.481Z,102070.89
2023-01-01T06:26:40.887Z,102075.58
2023-01-01T06:29:09.828Z,102078.27
2023-01-01T06:31:40.855Z,102077.54
2023-01-01T06:34:09.886Z,102078.20
2023-01-01T06:36:38.119Z,102074.77
2023-01-01T06:39:06.728Z,102076.84
2023-01-01T06:41:35.789Z,102078.97
2023-01-01T06:44:04.162Z,102080.54
2023-01-01T06:46:36.977Z,102079.37
2023-01-01T06:49:07.890Z,102087.61
2023-01-01T06:51:42.252Z,102085.62
2023-01-01T06:54:11.690Z,102087.35
2023-01-01T06:56:40.240Z,102086.89
2023-01-01T06:59:08.564Z,102088.67
2023-01-01T07:01:38.803Z,102086.53
2023-01-01T07:04:16.385Z,102088.59
2023-01-01T07:06:44.553Z,102087.91
2023-01-01T07:09:17.427Z,102086.92
2023-01-01T07:11:47.607Z,102091.76
2023-01-01T07:14:18.671Z,102089.45
2023-01-01T07:16:47.421Z,102091.20
2023-01-01T07:19:16.115Z,102090.20
2023-01-01T07:21:52.675Z,102095.48
2023-01-01T07:24:23.193Z,102097.30
2023-01-01T07:26:51.391Z,102098.08
2023-01-01T07:29:19.657Z,102097.24
2023-01-01T07:31:50.272Z,102098.81
2023-01-01T07:34:20.055Z,102099.36
2023-01-01T07:36:52.283Z,102098.77
2023-01-01T07:39:20.672Z,102095.77
2023-01-01T07:41:49.626Z,102093.77
2023-01-01T07:44:19.147Z,102091.31
2023-01-01T07:46:50.432Z,102095.30
2023-01-01T07:49:20.398Z,102097.40
2023-01-01T07:51:49.925Z,102092.92
2023-01-01T07:54:21.127Z,102088.09
2023-01-01T07:56:49.357Z,102081.31
2023-01-01T07:59:20.527Z,102084.50
2023-01-01T08:01:51.312Z,102088.48
2023-01-01T08:04:19.960Z,102094.02
2023-01-01T08:06:48.199Z,102097.46
2023-01-01T08:09:16.511Z,102101.33
2023-01-01T08:11:46.314Z,102103.39
2023-01-01T08:14:16.060Z,102107.34
2023-01-01T08:16:44.771Z,102111.83
2023-01-01T08:19:17.173Z,102111.92
2023-01-01T08:21:45.883Z,102113.71
2023-01-01T08:24:14.783Z,102116.52
2023-01-01T08:26:43.338Z,102117.76
2023-01-01T08:29:12.084Z,102118.73
2023-01-01T08:31:41.369Z,102122.13
2023-01-01T08:34:12.572Z,102125.36
2023-01-01T08:36:41.268Z,102124.03
2023-01-01T08:39:10.105Z,102126.50
2023-01-01T08:41:38.492Z,102124.13
2023-01-01T08:44:06.933Z,102127.00
2023-01-01T08:46:35.225Z,102131.17
2023-01-01T08:49:04.489Z,102138.40
2023-01-01T08:51:33.065Z,102142.75
2023-01-01T08:54:01.297Z,102147.54
2023-01-01T08:56:30.241Z,102147.73
2023-01-01T08:59:03.933Z,102143.51
2023-01-01T09:01:34.087Z,102147.24
2023-01-01T09:04:03.461Z,102149.48
2023-01-01T09:06:31.555Z,102148.51
2023-01-01T09:08:59.681Z,102148.66
2023-01-01T09:11:29.264Z,102152.62
2023-01-01T09:13:57.565Z,102156.86
2023-01-01T09:16:26.048Z,102159.91
2023-01-01T09:18:54.526Z,102158.79
2023-01-01T09:21:23.164Z,102163.69
2023-01-01T09:23:51.393Z,102163.72
2023-01-01T09:26:19.909Z,102162.70
2023-01-01T09:28:48.070Z,102165.44
2023-01-01T09:31:16.379Z,102162.89
2023-01-01T09:33:44.991Z,102160.00
2023-01-01T09:36:14.137Z,102164.42
2023-01-01T09:38:52.517Z,102167.36
2023-01-01T09:41:23.787Z,102164.73
2023-01-01T09:44:30.606Z,102165.80
2023-01-01T09:47:02.734Z,102165.41
2023-01-01T09:49:33.868Z,102164.61
2023-01-01T09:52:03.232Z,102167.15
2023-01-01T09:54:41.402Z,102168.86
2023-01-01T09:57:19.809Z,102167.71
2023-01-01T09:59:48.126Z,102165.59
2023-01-01T10:02:51.657Z,102166.14
2023-01-01T10:05:48.680Z,102163.73
2023-01-01T10:08:54.741Z,102163.80
2023-01-01T10:11:52.174Z,102162.73
2023-01-01T10:14:29.479Z,102158.92
2023-01-01T10:17:02.653Z,102157.22
2023-01-01T10:19:39.711Z,102153.23
2023-01-01T10:22:13.510Z,102154.17
2023-01-01T10:24:51.042Z,102155.50
2023-01-01T10:27:34.673Z,102153.44
2023-01-01T10:30:13.174Z,102152.85
2023-01-01T10:32:41.660Z,102146.87
2023-01-01T10:35:28.369Z,102142.53
2023-01-01T10:38:04.517Z,102137.62
2023-01-01T10:40:33.866Z,102134.64
2023-01-01T10:43:02.462Z,102130.89
2023-01-01T10:45:35.657Z,102127.83
2023-01-01T10:48:11.484Z,102125.53
2023-01-01T10:50:53.876Z,102117.89
2023-01-01T10:53:50.954Z,102114.55
2023-01-01T10:56:22.616Z,102108.13
2023-01-01T10:59:01.755Z,102102.22
2023-01-01T11:01:32.510Z,102099.15
2023-01-01T11:04:21.291Z,102097.83
2023-01-01T11:06:49.949Z,102096.65
2023-01-01T11:09:21.130Z,102093.66
2023-01-01T11:12:09.369Z,102089.08
2023-01-01T11:14:56.237Z,102086.52
2023-01-01T11:17:27.781Z,102083.70
2023-01-01T11:20:02.106Z,102082.17
2023-01-01T11:22:41.126Z,102077.40
2023-01-01T11:25:23.363Z,102072.55
2023-01-01T11:27:52.476Z,102066.77
2023-01-01T11:30:21.306Z,102063.87
2023-01-01T11:32:55.626Z,102060.61
2023-01-01T11:35:27.588Z,102058.13
2023-01-01T11:37:57.885Z,102055.29
2023-01-01T11:40:35.789Z,102048.33
2023-01-01T11:43:06.502Z,102046.98
2023-01-01T11:45:40.386Z,102042.80
2023-01-01T11:48:22.668Z,102033.73
2023-01-01T11:51:04.818Z,102033.64
2023-01-01T11:53:39.253Z,102033.20
2023-01-01T11:56:16.494Z,102027.70
2023-01-01T11:58:48.003Z,102027.23
2023-01-01T12:01:19.371Z,102027.70
2023-01-01T12:04:11.230Z,102025.92
2023-01-01T12:06:48.095Z,102021.23
2023-01-01T12:09:43.828Z,102015.01
2023-01-01T12:12:26.607Z,102011.66
2023-01-01T12:15:21.700Z,102005.13
2023-01-01T12:18:06.648Z,101999.20
2023-01-01T12:21:03.664Z,101991.92
2023-01-01T12:23:32.666Z,101989.86
2023-01-01T12:26:18.612Z,101988.59
2023-01-01T12:29:17.843Z,101982.26
2023-01-01T12:32:14.806Z,101977.61
2023-01-01T12:35:12.103Z,101970.73
2023-01-01T12:37:43.203Z,101960.55
2023-01-01T12:40:34.888Z,101955.16
2023-01-01T12:43:04.885Z,101950.02
2023-01-01T12:46:00.591Z,101948.80
2023-01-01T12:48:56.848Z,101943.49
2023-01-01T12:51:30.973Z,101938.73
2023-01-01T12:54:17.407Z,101935.51
2023-01-01T12:56:45.491Z,101931.94
2023-01-01T12:59:42.998Z,101925.98
2023-01-01T13:02:25.110Z,101921.84
2023-01-01T13:05:00.778Z,101919.46
2023-01-01T13:07:39.730Z,101915.23
2023-01-01T13:10:19.994Z,101912.39
2023-01-01T13:12:49.237Z,101905.41
2023-01-01T13:15:39.676Z,101908.39
2023-01-01T13:18:13.715Z,101899.75
2023-01-01T13:20:47.211Z,101898.41
2023-01-01T13:23:33.919Z,101896.02
2023-01-01T13:26:20.485Z,101887.46
2023-01-01T13:28:58.074Z,101885.02
2023-01-01T13:31:38.672Z,101883.31
2023-01-01T13:34:59.654Z,101879.71
2023-01-01T13:37:30.189Z,101878.21
2023-01-01T13:40:23.136Z,101874.86
2023-01-01T13:42:57.636Z,101871.40
2023-01-01T13:46:11.651Z,101867.36
2023-01-01T13:49:00.918Z,101862.06
2023-01-01T13:52:07.006Z,101861.44
2023-01-01T13:54:54.410Z,101856.89
2023-01-01T13:57:48.689Z,101852.38
2023-01-01T14:00:24.298Z,101854.12
2023-01-01T14:03:09.063Z,101850.10
2023-01-01T14:05:46.176Z,101846.23
2023-01-01T14:08:31.330Z,101839.78
2023-01-01T14:11:00.642Z,101837.34
2023-01-01T14:13:40.825Z,101841.25
2023-01-01T14:16:11.725Z,101834.92
2023-01-01T14:18:44.297Z,101833.07
2023-01-01T14:21:16.350Z,101828.55
2023-01-01T14:23:48.957Z,101823.38
2023-01-01T14:26:20.269Z,101818.64
2023-01-01T14:28:49.284Z,101816.98
2023-01-01T14:31:20.616Z,101815.04
2023-01-01T14:33:49.037Z,101818.27
2023-01-01T14:36:17.206Z,101818.10
2023-01-01T14:38:47.626Z,101818.30
2023-01-01T14:41:30.169Z,101814.09
2023-01-01T14:44:07.341Z,101809.52
2023-01-01T14:46:41.136Z,101809.87
2023-01-01T14:49:16.137Z,101806.96
2023-01-01T14:51:47.140Z,101808.36
2023-01-01T14:54:21.864Z,101805.23
2023-01-01T14:56:51.686Z,101803.59
2023-01-01T14:59:50.141Z,101799.67
2023-01-01T15:02:21.534Z,101800.33
2023-01-01T15:04:50.760Z,101803.66
2023-01-01T15:07:27.129Z,101802.76
2023-01-01T15:09:58.110Z,101799.90
2023-01-01T15:12:27.336Z,101801.93
2023-01-01T15:14:57.425Z,101804.02
2023-01-01T15:17:27.693Z,101803.67
2023-01-01T15:20:23.999Z,101808.45
2023-01-01T15:22:54.794Z,101805.77
2023-01-01T15:25:24.229Z,101806.36
2023-01-01T15:27:55.149Z,101806.34
2023-01-01T15:30:28.599Z,101813.42
2023-01-01T15:33:05.988Z,101812.80
2023-01-01T15:35:35.100Z,101810.88
2023-01-01T15:38:12.493Z,101805.13
2023-01-01T15:40:41.445Z,101806.53
2023-01-01T15:43:24.151Z,101801.03
2023-01-01T15:45:53.861Z,101800.58
2023-01-01T15:48:37.475Z,101802.44
2023-01-01T15:51:12.950Z,101801.98
2023-01-01T15:53:55.074Z,101802.44
2023-01-01T15:56:32.964Z,101805.44
2023-01-01T15:59:09.182Z,101800.56
2023-01-01T16:01:40.746Z,101798.38
2023-01-01T16:04:29.135Z,101795.97
2023-01-01T16:06:59.447Z,101795.14
2023-01-01T16:09:27.801Z,101792.13
2023-01-01T16:11:57.231Z,101796.20
2023-01-01T16:14:25.647Z,101798.89
2023-01-01T16:16:56.784Z,101797.55
2023-01-01T16:19:25.673Z,101793.05
2023-01-01T16:21:53.854Z,101789.69
2023-01-01T16:24:23.349Z,101792.05
2023-01-01T16:26:51.641Z,101796.11
2023-01-01T16:29:19.868Z,101797.66
2023-01-01T16:31:48.348Z,101800.63
2023-01-01T16:34:16.621Z,101803.38
2023-01-01T16:36:45.654Z,101805.43
2023-01-01T16:39:13.922Z,101806.19
2023-01-01T16:41:44.931Z,101806.39
2023-01-01T16:44:15.083Z,101811.09
2023-01-01T16:46:43.894Z,101809.00
2023-01-01T16:49:12.263Z,101811.77
2023-01-01T16:51:43.723Z,101815.23
2023-01-01T16:54:12.696Z,101815.66
2023-01-01T16:56:41.029Z,101811.70
2023-01-01T16:59:09.816Z,101811.61
2023-01-01T17:01:38.085Z,101813.30
2023-01-01T17:04:07.132Z,101817.23
2023-01-01T17:06:38.549Z,101817.56
2023-01-01T17:09:07.379Z,101818.17
2023-01-01T17:11:36.719Z,101817.96
2023-01-01T17:14:05.005Z,101817.48
2023-01-01T17:16:39.004Z,101817.84
2023-01-01T17:19:18.147Z,101820.73
2023-01-01T17:21:48.433Z,101823.64
2023-01-01T17:24:18.613Z,101830.15
2023-01-01T17:26:51.711Z,101834.79
2023-01-01T17:29:21.480Z,101841.04
2023-01-01T17:31:50.074Z,101841.42
2023-01-01T17:34:19.124Z,101848.10
2023-01-01T17:36:47.362Z,101852.30
2023-01-01T17:39:16.071Z,101855.38
2023-01-01T17:41:45.130Z,101856.60
2023-01-01T17:44:13.382Z,101861.38
2023-01-01T17:46:41.622Z,101865.17
2023-01-01T17:49:10.602Z,101862.55
2023-01-01T17:51:38.923Z,101861.41
2023-01-01T17:54:07.382Z,101859.88
2023-01-01T17:56:36.064Z,101861.60
2023-01-01T17:59:04.464Z,101865.36
2023-01-01T18:01:33.587Z,101861.62
2023-01-01T18:04:07.602Z,101863.94
2023-01-01T18:06:41.994Z,101864.27
2023-01-01T18:09:13.384Z,101865.14
2023-01-01T18:11:42.112Z,101867.09
2023-01-01T18:14:12.181Z,101871.17
2023-01-01T18:16:44.103Z,101871.10
2023-01-01T18:19:12.524Z,101872.13
2023-01-01T18:21:40.742Z,101875.65
2023-01-01T18:24:14.499Z,101870.56
2023-01-01T18:26:43.410Z,101873.37
2023-01-01T18:29:11.780Z,101876.85
2023-01-01T18:31:40.287Z,101876.60
2023-01-01T18:34:10.468Z,101881.73
2023-01-01T18:36:39.014Z,101881.73
2023-01-01T18:39:15.581Z,101885.39
2023-01-01T18:42:12.135Z,101887.04
2023-01-01T18:44:40.918Z,101887.27
2023-01-01T18:47:20.074Z,101887.52
2023-01-01T18:49:50.800Z,101892.74
2023-01-01T18:52:28.024Z,101889.46
2023-01-01T18:55:11.053Z,101894.89
2023-01-01T18:57:40.924Z,101893.45
2023-01-01T19:00:19.244Z,101897.53
2023-01-01T19:02:58.630Z,101899.34
2023-01-01T19:05:29.887Z,101903.01
2023-01-01T19:08:07.244Z,101900.50
2023-01-01T19:10:54.207Z,101897.77
2023-01-01T19:13:36.774Z,101898.09
2023-01-01T19:16:11.865Z,101896.90
2023-01-01T19:18:43.078Z,101897.86
2023-01-01T19:21:11.178Z,101896.67
2023-01-01T19:23:57.207Z,101895.98
2023-01-01T19:26:27.904Z,101895.49
2023-01-01T19:28:58.261Z,101893.34
2023-01-01T19:31:27.085Z,101892.63
2023-01-01T19:33:55.285Z,101890.55
2023-01-01T19:36:23.865Z,101887.23
2023-01-01T19:38:52.263Z,101887.54
2023-01-01T19:41:20.565Z,101889.87
2023-01-01T19:43:49.057Z,101894.19
2023-01-01T19:46:17.198Z,101894.11
2023-01-01T19:48:45.387Z,101896.66
2023-01-01T19:51:13.681Z,101895.23
2023-01-01T19:53:41.879Z,101899.00
2023-01-01T19:56:10.084Z,101900.53
2023-01-01T19:58:38.607Z,101902.70
2023-01-01T20:01:06.822Z,101905.24
2023-01-01T20:03:53.621Z,101909.36
2023-01-01T20:06:23.011Z,101908.73
2023-01-01T20:08:51.581Z,101908.48
2023-01-01T20:11:20.839Z,101910.20
2023-01-01T20:13:49.632Z,101910.49
2023-01-01T20:16:17.786Z,101906.37
2023-01-01T20:18:45.896Z,101906.38
2023-01-01T20:21:14.247Z,101911.30
2023-01-01T20:23:42.723Z,101908.44
2023-01-01T20:26:10.981Z,101909.21
2023-01-01T20:28:39.882Z,101910.08
2023-01-01T20:31:08.096Z,101907.55
2023-01-01T20:33:36.508Z,101913.06
2023-01-01T20:36:04.884Z,101908.25
2023-01-01T20:38:36.942Z,101908.27
2023-01-01T20:41:09.073Z,101909.31
2023-01-01T20:43:37.257Z,101907.27
2023-01-01T20:46:05.577Z,101911.14
2023-01-01T20:48:33.827Z,101906.47
2023-01-01T20:51:01.967Z,101903.90
2023-01-01T20:53:30.079Z,101904.33
2023-01-01T20:55:58.853Z,101901.56
2023-01-01T20:58:27.001Z,101905.67
2023-01-01T21:00:55.288Z,101910.23
2023-01-01T21:03:23.485Z,101911.55
2023-01-01T21:05:51.674Z,101912.79
2023-01-01T21:08:19.955Z,101913.66
2023-01-01T21:10:48.543Z,101914.65
2023-01-01T21:13:16.620Z,101909.39
2023-01-01T21:15:44.831Z,101911.30
2023-01-01T21:18:14.029Z,101910.23
2023-01-01T21:20:48.055Z,101911.08
2023-01-01T21:23:26.773Z,101906.19
2023-01-01T21:25:55.138Z,101910.59
2023-01-01T21:28:27.953Z,101911.66
2023-01-01T21:30:59.903Z,101915.33
2023-01-01T21:33:32.485Z,101914.85
2023-01-01T21:36:13.252Z,101911.79
2023-01-01T21:38:42.326Z,101914.31
2023-01-01T21:41:29.649Z,101915.48
2023-01-01T21:43:58.987Z,101915.47
2023-01-01T21:46:34.538Z,101915.85
2023-01-01T21:49:17.868Z,101912.38
2023-01-01T21:52:01.088Z,101910.30
2023-01-01T21:54:35.237Z,101914.00
2023-01-01T21:57:33.139Z,101912.14
2023-01-01T22:00:01.995Z,101911.11
2023-01-01T22:02:32.889Z,101907.98
2023-01-01T22:05:19.442Z,101903.14
2023-01-01T22:08:04.136Z,101904.17
2023-01-01T22:10:36.071Z,101902.23
2023-01-01T22:13:14.764Z,101902.25
2023-01-01T22:15:44.908Z,101904.00
2023-01-01T22:18:21.938Z,101902.05
2023-01-01T22:20:50.819Z,101905.45
2023-01-01T22:23:39.387Z,101908.98
2023-01-01T22:26:20.263Z,101907.27
2023-01-01T22:28:51.624Z,101909.19
2023-01-01T22:31:26.523Z,101907.78
2023-01-01T22:33:54.776Z,101910.40
2023-01-01T22:36:26.234Z,101912.24
2023-01-01T22:38:57.727Z,101910.48
2023-01-01T22:41:25.929Z,101908.96
2023-01-01T22:44:01.295Z,101906.98
2023-01-01T22:46:34.484Z,101909.72
2023-01-01T22:49:19.467Z,101904.10
2023-01-01T22:51:52.370Z,101902.48
2023-01-01T22:54:21.246Z,101905.40
2023-01-01T22:56:49.388Z,101903.20
2023-01-01T22:59:17.535Z,101899.30
2023-01-01T23:01:46.033Z,101903.27
2023-01-01T23:04:14.368Z,101904.61
2023-01-01T23:06:42.677Z,101899.20
2023-01-01T23:09:11.654Z,101900.15
2023-01-01T23:11:40.080Z,101902.94
2023-01-01T23:14:08.597Z,101899.45
2023-01-01T23:16:37.846Z,101892.65
2023-01-01T23:19:06.846Z,101897.66
2023-01-01T23:21:36.112Z,101896.58
2023-01-01T23:24:09.025Z,101893.05
2023-01-01T23:26:38.349Z,101890.21
2023-01-01T23:29:09.335Z,101890.41
2023-01-01T23:31:39.360Z,101896.13
2023-01-01T23:34:08.177Z,101898.63
2023-01-01T23:36:38.329Z,101900.89
2023-01-01T23:39:06.541Z,101898.26
2023-01-01T23:41:34.723Z,101897.08
2023-01-01T23:44:03.031Z,101895.81
2023-01-01T23:46:33.957Z,101897.77
2023-01-01T23:49:04.781Z,101895.90
2023-01-01T23:51:34.067Z,101899.42
2023-01-01T23:54:02.415Z,101897.69
2023-01-01T23:56:30.766Z,101899.48
2023-01-01T23:58:58.921Z,101897.40
